Time;durP1;ratioP1;P1;durP2;ratioP2;P2;SDS_P1;SDS_P2;PMS_P1;PMS_P2;Temp;Humidity;BMP_temperature;BMP_pressure;BME280_temperature;BME280_humidity;BME280_pressure;Samples;Min_cycle;Max_cycle;Signal;HPM_P1;HPM_P2
2021/07/01 00:00:35;;;;;;;22.98;15.13;;;14.50;99.90;;;;;;5053369;28;20459;-65
2021/07/01 00:03:03;;;;;;;31.42;15.45;;;14.50;99.90;;;;;;5053572;28;20017;-65
2021/07/01 00:05:28;;;;;;;29.40;16.85;;;14.50;99.90;;;;;;5053608;28;20021;-65
2021/07/01 00:07:54;;;;;;;31.80;16.77;;;14.50;99.90;;;;;;5053592;28;20033;-65
2021/07/01 00:10:22;;;;;;;26.70;15.90;;;14.50;99.90;;;;;;5068916;28;20025;-65
2021/07/01 00:12:48;;;;;;;32.13;17.50;;;14.40;99.90;;;;;;5053557;28;20021;-66
2021/07/01 00:15:18;;;;;;;28.55;17.90;;;14.40;99.90;;;;;;5052043;28;20017;-66
2021/07/01 00:17:44;;;;;;;28.23;17.77;;;14.50;99.90;;;;;;5053487;28;20366;-65
2021/07/01 00:20:12;;;;;;;31.80;17.75;;;14.50;99.90;;;;;;5053457;28;20021;-65
2021/07/01 00:22:38;;;;;;;29.73;17.45;;;14.50;99.90;;;;;;5053443;28;20017;-65
2021/07/01 00:25:05;;;;;;;31.10;17.27;;;14.60;99.90;;;;;;5053155;28;20390;-65
2021/07/01 00:27:31;;;;;;;33.05;16.90;;;14.50;99.90;;;;;;5051923;28;20029;-65
2021/07/01 00:29:56;;;;;;;32.72;18.33;;;14.60;99.90;;;;;;5053356;28;20025;-66
2021/07/01 00:32:22;;;;;;;31.40;17.00;;;14.50;99.90;;;;;;5052785;28;20116;-66
2021/07/01 00:34:48;;;;;;;29.55;17.98;;;14.50;99.90;;;;;;5052612;28;20049;-65
2021/07/01 00:37:14;;;;;;;28.23;16.95;;;14.50;99.90;;;;;;5053273;28;20048;-65
2021/07/01 00:39:39;;;;;;;29.80;18.60;;;14.50;99.90;;;;;;5053210;28;20032;-65
2021/07/01 00:42:05;;;;;;;30.85;18.85;;;14.50;99.90;;;;;;5055293;28;20056;-65
2021/07/01 00:44:31;;;;;;;34.92;19.33;;;14.50;99.90;;;;;;5056855;28;20108;-65
2021/07/01 00:46:57;;;;;;;35.88;18.85;;;14.50;99.90;;;;;;5056847;28;20025;-66
2021/07/01 00:49:24;;;;;;;40.35;20.40;;;14.40;99.90;;;;;;5055339;28;20025;-66
2021/07/01 00:51:50;;;;;;;33.25;18.80;;;14.40;99.90;;;;;;5056180;28;20037;-65
2021/07/01 00:54:16;;;;;;;30.85;18.02;;;14.30;99.90;;;;;;5055488;28;20455;-65
2021/07/01 00:56:42;;;;;;;31.75;18.52;;;14.30;99.90;;;;;;5055201;28;20070;-66
2021/07/01 00:59:07;;;;;;;35.40;19.52;;;14.30;99.90;;;;;;5055478;28;20387;-66
2021/07/01 01:01:34;;;;;;;31.27;18.83;;;14.30;99.90;;;;;;5056596;28;20025;-65
2021/07/01 01:04:00;;;;;;;31.95;18.55;;;14.30;99.90;;;;;;5056223;28;20021;-65
2021/07/01 01:06:26;;;;;;;36.70;19.40;;;14.30;99.90;;;;;;5056215;28;20029;-65
2021/07/01 01:08:53;;;;;;;31.67;19.08;;;14.30;99.90;;;;;;5056399;28;20029;-65
2021/07/01 01:11:23;;;;;;;33.08;19.27;;;14.20;99.90;;;;;;5056394;28;20449;-65
2021/07/01 01:13:51;;;;;;;32.40;18.92;;;14.30;99.90;;;;;;5056244;28;20025;-65
2021/07/01 01:16:17;;;;;;;34.38;20.13;;;14.20;99.90;;;;;;5056267;28;20371;-65
2021/07/01 01:18:42;;;;;;;34.45;20.88;;;14.20;99.90;;;;;;5054398;28;20035;-66
2021/07/01 01:21:11;;;;;;;33.97;20.40;;;14.20;99.90;;;;;;5056178;28;20057;-65
2021/07/01 01:23:37;;;;;;;40.50;22.05;;;14.20;99.90;;;;;;5055637;28;20378;-66
2021/07/01 01:26:02;;;;;;;42.50;22.70;;;14.20;99.90;;;;;;5055557;28;20029;-65
2021/07/01 01:28:28;;;;;;;40.97;22.02;;;14.20;99.90;;;;;;5054892;28;20095;-65
2021/07/01 01:30:54;;;;;;;50.28;23.38;;;14.20;99.90;;;;;;5054879;28;20033;-66
2021/07/01 01:33:20;;;;;;;43.78;23.42;;;14.10;99.90;;;;;;5055600;28;20099;-66
2021/07/01 01:35:45;;;;;;;44.88;24.50;;;14.10;99.90;;;;;;5055639;28;20036;-65
2021/07/01 01:38:14;;;;;;;44.92;21.90;;;14.10;99.90;;;;;;5055593;28;20082;-65
2021/07/01 01:40:42;;;;;;;38.05;22.17;;;14.10;99.90;;;;;;5055584;28;20104;-65
2021/07/01 01:43:08;;;;;;;47.70;24.65;;;14.00;99.90;;;;;;5055253;28;20074;-65
2021/07/01 01:45:37;;;;;;;41.03;22.75;;;14.10;99.90;;;;;;5055201;28;20029;-65
2021/07/01 01:48:03;;;;;;;36.78;20.90;;;14.10;99.90;;;;;;5055449;28;20055;-65
2021/07/01 01:50:29;;;;;;;42.00;21.38;;;14.10;99.90;;;;;;5055386;28;20052;-65
2021/07/01 01:52:54;;;;;;;33.72;19.45;;;14.10;99.90;;;;;;5055590;28;20474;-66
2021/07/01 01:55:20;;;;;;;30.58;19.05;;;13.90;99.90;;;;;;5055472;28;20021;-65
2021/07/01 01:57:48;;;;;;;28.25;19.17;;;13.90;99.90;;;;;;5054360;28;20020;-65
2021/07/01 02:00:17;;;;;;;37.05;19.08;;;13.80;99.90;;;;;;5053691;28;20071;-65
2021/07/01 02:02:42;;;;;;;32.95;19.73;;;13.80;99.90;;;;;;5054004;28;20068;-65
2021/07/01 02:05:10;;;;;;;33.25;20.05;;;13.90;99.90;;;;;;5054856;28;20037;-66
2021/07/01 02:07:36;;;;;;;35.30;19.83;;;13.90;99.90;;;;;;5055349;28;20021;-65
2021/07/01 02:10:04;;;;;;;34.97;18.88;;;13.90;99.90;;;;;;5054713;28;20017;-66
2021/07/01 02:12:30;;;;;;;36.42;20.65;;;13.90;99.90;;;;;;5037074;28;20035;-65
2021/07/01 02:14:56;;;;;;;33.85;19.15;;;14.00;99.90;;;;;;5055115;28;20369;-65
2021/07/01 02:17:22;;;;;;;39.70;19.92;;;14.00;99.90;;;;;;5055132;28;20071;-65
2021/07/01 02:19:48;;;;;;;37.67;21.02;;;14.00;99.90;;;;;;5053947;28;20025;-65
2021/07/01 02:22:14;;;;;;;36.33;20.40;;;14.00;99.90;;;;;;5054804;28;20412;-66
2021/07/01 02:24:40;;;;;;;39.60;21.60;;;14.10;99.90;;;;;;5054744;28;20107;-65
2021/07/01 02:27:06;;;;;;;43.38;22.67;;;14.10;99.90;;;;;;5054970;28;20035;-65
2021/07/01 02:29:31;;;;;;;39.50;23.27;;;14.00;99.90;;;;;;5053479;28;20031;-65
2021/07/01 02:31:57;;;;;;;45.42;23.67;;;14.10;99.90;;;;;;5054333;28;20036;-66
2021/07/01 02:34:23;;;;;;;46.47;24.80;;;14.10;99.90;;;;;;5054227;28;20045;-65
2021/07/01 02:36:48;;;;;;;51.75;25.77;;;14.10;99.90;;;;;;5054780;28;20044;-65
2021/07/01 02:39:14;;;;;;;47.42;26.50;;;14.10;99.90;;;;;;5054438;28;20046;-65
2021/07/01 02:41:39;;;;;;;47.70;26.15;;;14.10;99.90;;;;;;5054659;28;20029;-65
2021/07/01 02:44:05;;;;;;;47.20;26.50;;;14.20;99.90;;;;;;5054672;28;20083;-65
2021/07/01 02:46:31;;;;;;;50.45;25.73;;;14.20;99.90;;;;;;5054043;28;20462;-66
2021/07/01 02:48:56;;;;;;;45.58;25.75;;;14.10;99.90;;;;;;5053982;28;20069;-65
2021/07/01 02:51:22;;;;;;;49.30;24.38;;;14.20;99.90;;;;;;5054499;28;20039;-65
2021/07/01 02:53:47;;;;;;;48.20;25.55;;;14.10;99.90;;;;;;5053831;28;20472;-65
2021/07/01 02:56:13;;;;;;;48.65;24.70;;;14.20;99.90;;;;;;5054433;28;20057;-66
2021/07/01 02:58:38;;;;;;;47.97;25.92;;;14.10;99.90;;;;;;5054389;28;20487;-65
2021/07/01 03:01:04;;;;;;;45.20;24.85;;;14.10;99.90;;;;;;5054353;28;20081;-65
2021/07/01 03:03:29;;;;;;;50.55;26.48;;;14.10;99.90;;;;;;5054130;28;20049;-66
2021/07/01 03:05:55;;;;;;;47.53;26.10;;;14.10;99.90;;;;;;5053476;28;20100;-65
2021/07/01 03:08:21;;;;;;;43.88;24.15;;;14.20;99.90;;;;;;5054211;28;20025;-65
2021/07/01 03:10:46;;;;;;;40.75;26.13;;;14.10;99.90;;;;;;5054162;28;20074;-65
2021/07/01 03:13:12;;;;;;;40.67;24.05;;;14.10;99.90;;;;;;5053901;28;20029;-66
2021/07/01 03:15:37;;;;;;;43.08;24.90;;;14.10;99.90;;;;;;5053503;28;20036;-66
2021/07/01 03:18:03;;;;;;;39.30;23.35;;;14.20;99.90;;;;;;5053549;28;20023;-65
2021/07/01 03:20:29;;;;;;;45.55;23.85;;;14.10;99.90;;;;;;5053779;28;20039;-66
2021/07/01 03:22:55;;;;;;;44.05;22.63;;;14.10;99.90;;;;;;5052600;28;20477;-66
2021/07/01 03:25:21;;;;;;;40.53;23.25;;;14.20;99.90;;;;;;5054024;28;20031;-65
2021/07/01 03:27:47;;;;;;;42.42;23.63;;;14.20;99.90;;;;;;5053713;28;20025;-65
2021/07/01 03:30:13;;;;;;;38.70;22.83;;;14.20;99.90;;;;;;5053643;28;20029;-65
2021/07/01 03:32:39;;;;;;;43.60;22.15;;;14.20;99.90;;;;;;5053641;28;20024;-65
2021/07/01 03:35:05;;;;;;;39.40;22.73;;;14.20;99.90;;;;;;5051846;28;20057;-65
2021/07/01 03:37:30;;;;;;;37.95;21.73;;;14.20;99.90;;;;;;5053579;28;20021;-65
2021/07/01 03:39:56;;;;;;;38.40;22.98;;;14.20;99.90;;;;;;5053790;28;20082;-65
2021/07/01 03:42:23;;;;;;;38.17;22.42;;;14.10;99.90;;;;;;5053180;28;20036;-65
2021/07/01 03:44:49;;;;;;;41.65;22.35;;;14.10;99.90;;;;;;5053791;28;20196;-65
2021/07/01 03:47:14;;;;;;;44.35;23.33;;;14.20;99.90;;;;;;5053770;28;20029;-65
2021/07/01 03:49:40;;;;;;;43.40;24.52;;;14.10;99.90;;;;;;5052496;28;20083;-65
2021/07/01 03:52:06;;;;;;;49.10;23.20;;;14.20;99.90;;;;;;5053471;28;20029;-66
2021/07/01 03:54:33;;;;;;;39.75;22.80;;;14.20;99.90;;;;;;5053344;28;20029;-66
2021/07/01 03:56:59;;;;;;;47.35;22.92;;;14.20;99.90;;;;;;5052581;28;20113;-65
2021/07/01 03:59:25;;;;;;;39.00;21.42;;;14.20;99.90;;;;;;5053653;28;20013;-65
2021/07/01 04:01:50;;;;;;;42.22;21.85;;;14.20;99.90;;;;;;5053030;28;20086;-65
2021/07/01 04:04:16;;;;;;;39.95;21.70;;;14.20;99.90;;;;;;5053670;28;20028;-65
2021/07/01 04:06:41;;;;;;;41.67;22.33;;;14.20;99.90;;;;;;5052455;28;20413;-65
2021/07/01 04:09:07;;;;;;;35.53;20.27;;;14.20;99.90;;;;;;5051830;28;20025;-65
2021/07/01 04:11:34;;;;;;;39.10;21.88;;;14.20;99.90;;;;;;5053259;28;20036;-65
2021/07/01 04:14:00;;;;;;;40.75;21.65;;;14.20;99.90;;;;;;5051685;28;20386;-65
2021/07/01 04:16:26;;;;;;;39.10;20.20;;;14.10;99.90;;;;;;5054638;28;20032;-65
2021/07/01 04:18:51;;;;;;;41.88;20.23;;;14.10;99.90;;;;;;5057390;28;20569;-65
2021/07/01 04:21:17;;;;;;;35.13;19.65;;;14.20;99.90;;;;;;5057375;28;20367;-66
2021/07/01 04:23:43;;;;;;;44.70;21.42;;;14.10;99.90;;;;;;5057308;28;20051;-66
2021/07/01 04:26:08;;;;;;;30.95;19.30;;;14.20;99.90;;;;;;5056735;28;20033;-65
2021/07/01 04:28:34;;;;;;;37.25;18.80;;;14.20;99.90;;;;;;5056976;28;20025;-65
2021/07/01 04:31:01;;;;;;;35.15;19.42;;;14.20;99.90;;;;;;5057170;28;20021;-65
2021/07/01 04:33:27;;;;;;;33.75;19.08;;;14.10;99.90;;;;;;5056737;28;20033;-66
2021/07/01 04:35:52;;;;;;;31.50;17.88;;;14.20;99.90;;;;;;5055295;28;20021;-65
2021/07/01 04:38:19;;;;;;;35.70;18.85;;;14.20;99.90;;;;;;5057064;28;20025;-65
2021/07/01 04:40:45;;;;;;;35.17;17.88;;;14.20;99.90;;;;;;5056962;28;20075;-65
2021/07/01 04:43:11;;;;;;;37.83;18.05;;;14.20;99.90;;;;;;5056603;28;20024;-66
2021/07/01 04:45:37;;;;;;;34.05;18.38;;;14.30;99.90;;;;;;5056912;28;20372;-65
2021/07/01 04:48:06;;;;;;;31.05;16.85;;;14.30;99.90;;;;;;5056597;28;20032;-65
2021/07/01 04:50:32;;;;;;;32.55;18.63;;;14.30;99.90;;;;;;5056807;28;20028;-65
2021/07/01 04:52:57;;;;;;;31.52;18.17;;;14.30;99.90;;;;;;5056801;28;20021;-65
2021/07/01 04:55:23;;;;;;;31.88;17.45;;;14.30;99.90;;;;;;5056600;28;20032;-65
2021/07/01 04:57:49;;;;;;;42.33;19.13;;;14.20;99.90;;;;;;5056654;28;20033;-65
2021/07/01 05:00:15;;;;;;;29.75;17.02;;;14.20;99.90;;;;;;5056622;28;20028;-65
2021/07/01 05:02:40;;;;;;;32.58;17.85;;;14.20;99.90;;;;;;5055373;28;20021;-65
2021/07/01 05:05:06;;;;;;;29.73;17.88;;;14.20;99.90;;;;;;5055975;28;20025;-65
2021/07/01 05:07:32;;;;;;;30.17;17.55;;;14.20;99.90;;;;;;5056421;28;20478;-65
2021/07/01 05:09:57;;;;;;;29.67;17.13;;;14.10;99.90;;;;;;5055883;28;20041;-65
2021/07/01 05:12:23;;;;;;;22.52;14.60;;;14.20;99.90;;;;;;5056403;28;20032;-65
2021/07/01 05:14:49;;;;;;;25.60;15.15;;;14.10;99.90;;;;;;5054548;28;20039;-65
2021/07/01 05:17:14;;;;;;;26.40;15.13;;;14.10;99.90;;;;;;5056303;28;20029;-65
2021/07/01 05:19:40;;;;;;;23.98;14.90;;;14.10;99.90;;;;;;5055955;28;20382;-65
2021/07/01 05:22:05;;;;;;;22.58;14.52;;;14.20;99.90;;;;;;5056188;28;20458;-65
2021/07/01 05:24:31;;;;;;;22.67;14.25;;;14.20;99.90;;;;;;5056139;28;20035;-65
2021/07/01 05:26:56;;;;;;;23.85;13.75;;;14.30;99.90;;;;;;5055758;28;20382;-65
2021/07/01 05:29:22;;;;;;;23.95;14.52;;;14.30;99.90;;;;;;5056051;28;20501;-65
2021/07/01 05:31:47;;;;;;;23.40;14.10;;;14.30;99.90;;;;;;5056016;28;20055;-65
2021/07/01 05:34:13;;;;;;;25.67;14.38;;;14.30;99.90;;;;;;5055395;28;20041;-65
2021/07/01 05:36:38;;;;;;;18.90;12.85;;;14.30;99.90;;;;;;5055323;28;20044;-65
2021/07/01 05:39:06;;;;;;;21.55;12.75;;;14.30;99.90;;;;;;5055884;28;20128;-65
2021/07/01 05:41:32;;;;;;;17.02;11.60;;;14.30;99.90;;;;;;5055322;28;20075;-65
2021/07/01 05:44:00;;;;;;;20.90;12.05;;;14.30;99.90;;;;;;5055320;28;20470;-65
2021/07/01 05:46:26;;;;;;;19.10;12.02;;;14.40;99.90;;;;;;5055805;28;20079;-65
2021/07/01 05:48:52;;;;;;;20.33;11.77;;;14.50;99.90;;;;;;5055691;28;20029;-65
2021/07/01 05:51:18;;;;;;;18.42;11.90;;;14.50;99.90;;;;;;5055125;28;20025;-66
2021/07/01 05:53:57;;;;;;;23.05;12.63;;;14.60;99.90;;;;;;5055524;28;20458;-66
2021/07/01 05:56:22;;;;;;;20.73;11.82;;;14.60;99.90;;;;;;5055518;28;20021;-65
2021/07/01 05:58:48;;;;;;;19.45;12.32;;;14.70;99.90;;;;;;5054502;28;20439;-65
2021/07/01 06:01:13;;;;;;;18.48;12.32;;;14.80;99.90;;;;;;5053397;28;20071;-65
2021/07/01 06:03:39;;;;;;;22.45;13.05;;;14.70;99.90;;;;;;5054039;28;20083;-65
2021/07/01 06:06:10;;;;;;;18.08;12.13;;;14.60;99.90;;;;;;5051989;28;20134;-65
2021/07/01 06:08:36;;;;;;;18.00;12.20;;;14.60;99.90;;;;;;5054043;28;20563;-65
2021/07/01 06:11:06;;;;;;;20.38;12.50;;;14.60;99.90;;;;;;5052785;28;20394;-65
2021/07/01 06:13:35;;;;;;;20.17;12.20;;;14.60;99.90;;;;;;5053268;28;20024;-66
2021/07/01 06:16:01;;;;;;;20.35;11.65;;;14.70;99.90;;;;;;5055089;28;20021;-65
2021/07/01 06:18:27;;;;;;;17.50;11.68;;;14.60;99.90;;;;;;5053786;28;20021;-66
2021/07/01 06:20:53;;;;;;;19.23;11.70;;;14.70;99.90;;;;;;5053464;28;20488;-65
2021/07/01 06:23:19;;;;;;;16.25;10.60;;;14.70;99.90;;;;;;5054137;28;20099;-65
2021/07/01 06:25:49;;;;;;;16.73;10.55;;;14.70;99.90;;;;;;5053778;28;20056;-65
2021/07/01 06:28:16;;;;;;;14.75;9.98;;;14.70;99.90;;;;;;5054273;28;20021;-66
2021/07/01 06:30:44;;;;;;;18.40;10.15;;;14.80;99.90;;;;;;5054043;28;20032;-66
2021/07/01 06:33:11;;;;;;;15.70;9.82;;;14.80;99.90;;;;;;5052799;28;20033;-65
2021/07/01 06:35:38;;;;;;;14.40;9.90;;;14.90;99.90;;;;;;5054153;28;20033;-65
2021/07/01 06:38:09;;;;;;;15.75;9.60;;;14.90;99.90;;;;;;5054352;28;20032;-66
2021/07/01 06:40:35;;;;;;;16.15;9.98;;;14.80;99.90;;;;;;5050529;28;20052;-65
2021/07/01 06:43:02;;;;;;;18.70;10.88;;;14.70;99.90;;;;;;5042904;28;20128;-66
2021/07/01 06:45:28;;;;;;;16.40;10.85;;;14.60;99.90;;;;;;5052116;28;20486;-65
2021/07/01 06:47:56;;;;;;;23.83;10.52;;;14.70;99.90;;;;;;5052105;28;20052;-65
2021/07/01 06:50:24;;;;;;;17.85;11.52;;;14.60;99.90;;;;;;5052818;28;20036;-66
2021/07/01 06:52:52;;;;;;;21.25;11.23;;;14.60;99.90;;;;;;5052547;28;20059;-65
2021/07/01 06:55:18;;;;;;;24.17;10.75;;;14.50;99.90;;;;;;5052577;28;20021;-65
2021/07/01 06:57:44;;;;;;;21.00;11.45;;;14.50;99.90;;;;;;5049243;28;20029;-66
2021/07/01 07:00:12;;;;;;;19.40;12.50;;;14.40;99.90;;;;;;5053270;28;20048;-65
2021/07/01 07:02:40;;;;;;;19.45;12.65;;;14.40;99.90;;;;;;5050816;28;20025;-65
2021/07/01 07:05:09;;;;;;;21.85;13.13;;;14.30;99.90;;;;;;5052132;28;20029;-65
2021/07/01 07:07:35;;;;;;;24.65;13.38;;;14.30;99.90;;;;;;5052414;28;20029;-65
2021/07/01 07:10:04;;;;;;;21.40;12.73;;;14.40;99.90;;;;;;5051919;28;20029;-65
2021/07/01 07:12:30;;;;;;;22.17;13.45;;;14.30;99.90;;;;;;5052334;28;20082;-65
2021/07/01 07:14:56;;;;;;;25.65;14.15;;;14.40;99.90;;;;;;5052624;28;20021;-65
2021/07/01 07:17:27;;;;;;;24.25;13.77;;;14.30;99.90;;;;;;5051819;28;20470;-65
2021/07/01 07:19:53;;;;;;;25.75;14.25;;;14.40;99.90;;;;;;5052202;28;20043;-66
2021/07/01 07:22:20;;;;;;;28.15;15.30;;;14.30;99.90;;;;;;5051413;28;20029;-65
2021/07/01 07:24:53;;;;;;;27.77;14.00;;;14.30;99.90;;;;;;5050247;28;20047;-65
2021/07/01 07:27:26;;;;;;;29.30;15.27;;;14.30;99.90;;;;;;5048784;28;20375;-65
2021/07/01 07:29:51;;;;;;;29.65;14.55;;;14.40;99.90;;;;;;5044606;28;20271;-66
2021/07/01 07:32:20;;;;;;;23.85;13.90;;;14.50;99.90;;;;;;5051198;28;20037;-65
2021/07/01 07:34:49;;;;;;;25.33;14.10;;;14.50;99.90;;;;;;5052844;28;20140;-66
2021/07/01 07:37:15;;;;;;;25.15;13.10;;;14.50;99.90;;;;;;5050135;28;20017;-65
2021/07/01 07:39:40;;;;;;;27.27;12.98;;;14.50;99.90;;;;;;5052957;28;20025;-65
2021/07/01 07:42:06;;;;;;;23.77;13.48;;;14.50;99.90;;;;;;5050643;28;20044;-65
2021/07/01 07:44:35;;;;;;;22.17;12.55;;;14.60;99.90;;;;;;5050691;28;20044;-65
2021/07/01 07:47:01;;;;;;;22.35;12.45;;;14.60;99.90;;;;;;5044342;28;20546;-65
2021/07/01 07:49:26;;;;;;;25.20;11.60;;;14.60;99.90;;;;;;5044485;28;20037;-65
2021/07/01 07:51:53;;;;;;;23.35;11.70;;;14.70;99.90;;;;;;5044945;28;20051;-65
2021/07/01 07:54:24;;;;;;;22.73;11.52;;;14.70;99.90;;;;;;5053815;28;20033;-65
2021/07/01 07:56:53;;;;;;;19.70;11.98;;;14.70;99.90;;;;;;5052349;28;20021;-65
2021/07/01 07:59:23;;;;;;;18.65;12.35;;;14.80;99.90;;;;;;5056991;28;20020;-65
2021/07/01 08:01:50;;;;;;;16.67;12.10;;;14.70;99.90;;;;;;5049261;28;20490;-64
2021/07/01 08:04:17;;;;;;;21.17;11.95;;;14.80;99.90;;;;;;5056415;28;20039;-65
2021/07/01 08:06:46;;;;;;;19.38;11.95;;;14.80;99.90;;;;;;5056325;28;20021;-65
2021/07/01 08:09:13;;;;;;;24.75;11.80;;;14.70;99.90;;;;;;5056691;28;20036;-65
2021/07/01 08:11:41;;;;;;;19.40;11.23;;;14.80;99.90;;;;;;5057104;28;20052;-65
2021/07/01 08:14:07;;;;;;;21.85;12.50;;;14.80;99.90;;;;;;5056462;28;20386;-65
2021/07/01 08:16:34;;;;;;;16.25;10.57;;;14.80;99.90;;;;;;5056334;28;20029;-65
2021/07/01 08:19:00;;;;;;;22.80;12.15;;;14.80;99.90;;;;;;5056183;28;20039;-65
2021/07/01 08:21:27;;;;;;;20.75;11.05;;;14.80;99.90;;;;;;5054603;28;20021;-65
2021/07/01 08:23:53;;;;;;;16.48;10.45;;;14.70;99.90;;;;;;5056337;28;20029;-65
2021/07/01 08:26:19;;;;;;;23.30;13.07;;;14.70;99.90;;;;;;5056423;28;20025;-65
2021/07/01 08:28:45;;;;;;;22.15;13.57;;;14.70;99.90;;;;;;5056381;28;20029;-65
2021/07/01 08:31:15;;;;;;;23.55;13.85;;;14.70;99.90;;;;;;5055208;28;20021;-66
2021/07/01 08:33:44;;;;;;;24.02;13.13;;;14.70;99.90;;;;;;5054114;28;20541;-65
2021/07/01 08:36:14;;;;;;;20.08;13.38;;;14.80;99.90;;;;;;5052862;28;20068;-65
2021/07/01 08:38:41;;;;;;;24.27;14.13;;;14.80;99.90;;;;;;5055379;28;20112;-65
2021/07/01 08:41:17;;;;;;;25.05;14.23;;;14.70;99.90;;;;;;5037865;28;20025;-65
2021/07/01 08:43:52;;;;;;;24.58;12.60;;;14.70;99.90;;;;;;5053837;28;20021;-66
2021/07/01 08:49:08;;;;;;;22.00;12.77;;;14.50;99.90;;;;;;5109156;27;20326;-64
2021/07/01 08:51:38;;;;;;;22.20;13.35;;;14.50;99.90;;;;;;5096954;28;20031;-65
2021/07/01 08:54:32;;;;;;;23.48;11.60;;;14.60;99.90;;;;;;5089985;28;20016;-63
2021/07/01 08:56:57;;;;;;;;;;;14.60;99.90;;;;;;5091474;28;20418;-63
2021/07/01 08:59:26;;;;;;;24.35;11.68;;;14.50;99.90;;;;;;5092137;28;19963;-65
2021/07/01 09:01:58;;;;;;;19.75;11.68;;;14.60;99.90;;;;;;5090057;28;20518;-63
2021/07/01 09:04:29;;;;;;;18.95;10.00;;;14.70;99.90;;;;;;5086381;28;20469;-64
2021/07/01 09:07:00;;;;;;;21.02;10.13;;;14.60;99.90;;;;;;5087243;28;22306;-64
2021/07/01 09:09:32;;;;;;;20.77;10.63;;;14.60;99.90;;;;;;5092254;28;20024;-63
2021/07/01 09:12:01;;;;;;;24.73;11.20;;;14.70;99.90;;;;;;5087758;28;20020;-64
2021/07/01 09:14:29;;;;;;;16.17;9.30;;;14.70;99.90;;;;;;5077150;28;20434;-63
2021/07/01 09:16:55;;;;;;;19.10;10.10;;;14.60;99.90;;;;;;5079734;28;20024;-64
2021/07/01 09:19:23;;;;;;;20.30;11.30;;;14.60;99.90;;;;;;5094567;28;20042;-64
2021/07/01 09:21:51;;;;;;;17.75;11.00;;;14.70;99.90;;;;;;5098144;28;20470;-64
2021/07/01 09:24:17;;;;;;;19.58;10.88;;;14.70;99.90;;;;;;5106314;28;20111;-64
2021/07/01 09:26:47;;;;;;;14.40;9.82;;;14.80;99.90;;;;;;5095125;28;20108;-64
2021/07/01 09:29:13;;;;;;;17.15;10.82;;;14.70;99.90;;;;;;5094733;28;20023;-66
2021/07/01 09:31:40;;;;;;;21.52;10.75;;;14.80;99.90;;;;;;5109193;28;20111;-64
2021/07/01 09:34:07;;;;;;;15.43;9.98;;;14.90;99.90;;;;;;5101855;28;20064;-64
2021/07/01 09:36:33;;;;;;;14.43;10.43;;;14.80;99.90;;;;;;5089031;28;20020;-64
2021/07/01 09:39:00;;;;;;;14.07;8.90;;;14.80;99.90;;;;;;5089134;28;20473;-64
2021/07/01 09:41:26;;;;;;;15.93;9.35;;;15.00;99.90;;;;;;5109534;28;20080;-64
2021/07/01 09:43:52;;;;;;;13.85;10.27;;;15.00;99.90;;;;;;5096500;28;20115;-64
2021/07/01 09:46:21;;;;;;;16.27;9.70;;;14.90;99.90;;;;;;5082453;28;20079;-66
2021/07/01 09:48:50;;;;;;;14.93;10.02;;;15.00;99.90;;;;;;5079330;28;20060;-66
2021/07/01 09:51:17;;;;;;;13.85;9.23;;;15.10;99.90;;;;;;5086871;28;20428;-65
2021/07/01 09:53:48;;;;;;;13.43;9.82;;;15.20;99.90;;;;;;5081174;28;20019;-66
2021/07/01 09:56:37;;;;;;;19.13;10.82;;;15.30;99.90;;;;;;5086423;28;20027;-66
2021/07/01 09:59:10;;;;;;;22.20;13.63;;;15.30;99.90;;;;;;5093226;28;20027;-66
2021/07/01 10:01:38;;;;;;;18.63;13.05;;;15.20;99.90;;;;;;5080457;28;20097;-66
2021/07/01 10:04:07;;;;;;;19.20;12.57;;;15.20;99.90;;;;;;5089821;28;20032;-66
2021/07/01 10:06:33;;;;;;;21.02;15.27;;;15.00;99.90;;;;;;5075643;28;20028;-66
2021/07/01 10:08:59;;;;;;;28.70;16.88;;;14.80;99.90;;;;;;5086384;28;20032;-66
2021/07/01 10:11:43;;;;;;;24.52;16.75;;;14.80;99.90;;;;;;5075888;28;20032;-66
2021/07/01 10:14:12;;;;;;;23.08;16.15;;;14.90;99.90;;;;;;5074947;28;20028;-66
2021/07/01 10:16:39;;;;;;;22.38;16.00;;;14.80;99.90;;;;;;5074111;28;20016;-66
2021/07/01 10:19:08;;;;;;;22.30;16.95;;;14.70;99.90;;;;;;5071506;28;20071;-66
2021/07/01 10:21:35;;;;;;;22.90;16.33;;;14.70;99.90;;;;;;5080056;28;20359;-66
2021/07/01 10:24:08;;;;;;;27.98;19.27;;;14.60;99.90;;;;;;5075068;28;20021;-66
2021/07/01 10:26:46;;;;;;;22.17;14.93;;;14.70;99.90;;;;;;5075160;28;20017;-66
2021/07/01 10:29:13;;;;;;;22.60;15.45;;;14.60;99.90;;;;;;5086395;28;20432;-66
2021/07/01 10:31:56;;;;;;;21.33;15.90;;;14.70;99.90;;;;;;5073094;28;20484;-66
2021/07/01 10:34:25;;;;;;;20.88;17.23;;;14.70;99.90;;;;;;5064409;28;20119;-66
2021/07/01 10:37:19;;;;;;;20.30;16.23;;;14.70;99.90;;;;;;5064283;28;20032;-65
2021/07/01 10:39:47;;;;;;;18.60;13.02;;;14.70;99.90;;;;;;5074345;28;20530;-66
2021/07/01 10:42:14;;;;;;;20.25;14.15;;;14.70;99.90;;;;;;5074646;28;20374;-65
2021/07/01 10:44:40;;;;;;;24.17;15.52;;;14.70;99.90;;;;;;5074413;28;20074;-66
2021/07/01 10:47:29;;;;;;;20.13;15.45;;;14.70;99.90;;;;;;5053592;28;20483;-66
2021/07/01 10:49:56;;;;;;;23.95;15.38;;;14.70;99.90;;;;;;5094492;28;20020;-66
2021/07/01 10:52:35;;;;;;;24.80;17.70;;;14.70;99.90;;;;;;5076564;28;20500;-66
2021/07/01 10:55:01;;;;;;;20.15;15.52;;;14.80;99.90;;;;;;5074343;28;20169;-66
2021/07/01 10:57:30;;;;;;;26.13;17.08;;;14.70;99.90;;;;;;5073574;28;20477;-66
2021/07/01 10:59:57;;;;;;;19.50;14.27;;;14.80;99.90;;;;;;5073449;28;20039;-66
2021/07/01 11:02:25;;;;;;;18.98;13.80;;;14.80;99.90;;;;;;5072909;28;20032;-65
2021/07/01 11:04:57;;;;;;;24.25;16.48;;;14.70;99.90;;;;;;5074146;28;20027;-66
2021/07/01 11:07:24;;;;;;;26.48;16.65;;;14.70;99.90;;;;;;5070938;28;20422;-66
2021/07/01 11:09:53;;;;;;;20.85;14.05;;;14.70;99.90;;;;;;5067723;28;20383;-66
2021/07/01 11:12:21;;;;;;;22.30;14.93;;;14.60;99.90;;;;;;5066262;28;20025;-66
2021/07/01 11:14:48;;;;;;;22.63;16.17;;;14.60;99.90;;;;;;5063692;28;20370;-64
2021/07/01 11:17:15;;;;;;;19.52;13.73;;;14.70;99.90;;;;;;5073121;28;20021;-66
2021/07/01 11:19:44;;;;;;;18.60;13.57;;;14.80;99.90;;;;;;5074640;28;20022;-65
2021/07/01 11:22:10;;;;;;;17.98;13.07;;;14.70;99.90;;;;;;5072921;28;20129;-64
2021/07/01 11:24:41;;;;;;;15.45;12.82;;;14.70;99.90;;;;;;5073246;28;20037;-65
2021/07/01 11:27:07;;;;;;;15.75;11.60;;;14.70;99.90;;;;;;5073273;28;20465;-67
2021/07/01 11:29:37;;;;;;;18.25;13.40;;;14.80;99.90;;;;;;5065926;28;20024;-67
2021/07/01 11:32:03;;;;;;;16.63;12.45;;;14.80;99.90;;;;;;5074979;28;20024;-65
2021/07/01 11:34:46;;;;;;;16.73;11.00;;;14.80;99.90;;;;;;5072117;28;20103;-67
2021/07/01 11:37:13;;;;;;;16.47;12.53;;;14.80;99.90;;;;;;5071743;28;20032;-67
2021/07/01 11:39:39;;;;;;;18.58;12.45;;;14.80;99.90;;;;;;5081479;28;20352;-64
2021/07/01 11:42:05;;;;;;;15.68;10.65;;;15.00;99.90;;;;;;5072078;28;20115;-65
2021/07/01 11:44:32;;;;;;;13.48;10.85;;;14.90;99.90;;;;;;5064972;28;20508;-66
2021/07/01 11:47:00;;;;;;;17.63;11.40;;;15.00;99.90;;;;;;5060385;28;20051;-66
2021/07/01 11:49:29;;;;;;;14.82;11.27;;;15.00;99.90;;;;;;5052694;28;20025;-66
2021/07/01 11:51:56;;;;;;;12.52;8.88;;;15.00;99.90;;;;;;5074790;28;20165;-66
2021/07/01 11:54:22;;;;;;;13.35;10.68;;;14.80;99.90;;;;;;5080062;28;20031;-66
2021/07/01 11:56:54;;;;;;;11.63;9.25;;;14.90;99.90;;;;;;5082224;28;20107;-66
2021/07/01 11:59:22;;;;;;;11.73;9.80;;;14.90;99.90;;;;;;5080926;28;20028;-66
2021/07/01 12:01:48;;;;;;;13.68;9.98;;;14.90;99.90;;;;;;5072047;28;20024;-66
2021/07/01 12:04:15;;;;;;;11.07;9.07;;;14.90;99.90;;;;;;5068690;28;20083;-66
2021/07/01 12:06:55;;;;;;;9.93;8.27;;;14.80;99.90;;;;;;5070681;28;20153;-65
2021/07/01 12:09:22;;;;;;;12.93;7.88;;;14.70;99.90;;;;;;5083841;28;20035;-65
2021/07/01 12:14:43;;;;;;;10.50;8.00;;;14.70;99.90;;;;;;5056668;28;20444;-67
2021/07/01 12:17:09;;;;;;;10.25;8.43;;;14.60;99.90;;;;;;5036154;28;20037;-64
2021/07/01 12:19:55;;;;;;;9.88;8.23;;;14.60;99.90;;;;;;5064692;28;20437;-66
2021/07/01 12:22:44;;;;;;;10.32;8.77;;;14.60;99.90;;;;;;5049945;28;20033;-67
2021/07/01 12:25:32;;;;;;;12.80;9.68;;;14.60;99.90;;;;;;5046428;28;20030;-67
2021/07/01 12:31:05;;;;;;;12.27;9.95;;;14.60;99.90;;;;;;5068803;28;20365;-66
2021/07/01 12:36:27;;;;;;;15.05;11.60;;;14.60;99.90;;;;;;5110874;27;20304;-64
2021/07/01 12:39:14;;;;;;;15.70;12.15;;;14.70;99.90;;;;;;5087918;28;20043;-66
2021/07/01 12:41:43;;;;;;;16.73;12.57;;;14.70;99.90;;;;;;5082641;28;20028;-67